• Join FlightAware (Why Join?)
  • Login
  • US Flag 
10:26PM EDT


 

Airport Tracker/Info


-or-


 

Live Flight TrackerFlight Track Log ✈ KAP5 ✈ 30-Jun-2013 ✈ KBOS - KMVY

Flight Track Log - Related Links

Times and Time Zones

All times are in EDT time to prevent confusion due to time zone crossing. See the KAP5 flight status page for this flight to view local times or setup timezone preferences in your user account.

Time Position Orientation Groundspeed Altitude Reporting Facility
EDT Latitude Longitude Course Direction KTS MPH feet Rate Location/Type
12:37PM 42.3333 -71.0167 160° South 108 124 1,200  Level KA90
12:38PM 42.3000 -71.0000 160° South 109 125 1,800 600 Climbing KA90
12:40PM 42.2650 -70.9849 162° South  Level Estimated
12:47PM 42.1150 -70.9203 162° South  Level Estimated
12:48PM 42.0936 -70.9111 162° South  Level Estimated
12:49PM 42.0722 -70.9019 162° South  Level Estimated
12:50PM 42.0507 -70.8927 162° South  Level Estimated
12:51PM 42.0293 -70.8835 162° South  Level Estimated
12:52PM 42.0079 -70.8743 162° South  Level Estimated
12:53PM 41.9865 -70.8652 162° South  Level Estimated
12:54PM 41.9650 -70.8560 162° South  Level Estimated
12:55PM 41.9436 -70.8468 162° South  Level Estimated
12:56PM 41.9222 -70.8377 162° South  Level Estimated
12:57PM 41.9007 -70.8285 162° South  Level Estimated
12:58PM 41.8793 -70.8194 162° South  Level Estimated
12:59PM 41.8578 -70.8102 162° South  Level Estimated
01:00PM 41.8364 -70.8011 162° South  Level Estimated
01:01PM 41.8150 -70.7920 162° South  Level Estimated
01:02PM 41.7935 -70.7829 162° South  Level Estimated
01:03PM 41.7721 -70.7738 162° South  Level Estimated
01:04PM 41.7506 -70.7647 162° South  Level Estimated
01:05PM 41.7292 -70.7556 162° South  Level Estimated
01:06PM 41.7078 -70.7465 162° South  Level Estimated
01:07PM 41.6863 -70.7374 162° South  Level Estimated
01:08PM 41.6649 -70.7283 162° South  Level Estimated
01:09PM 41.6435 -70.7192 162° South  Level Estimated
01:10PM 41.6220 -70.7102 162° South  Level Estimated
01:11PM 41.6006 -70.7011 162° South  Level Estimated
01:12PM 41.5791 -70.6920 162° South  Level Estimated
01:13PM 41.5577 -70.6830 162° South  Level Estimated